sensor_id;sensor_type;location;lat;lon;timestamp;P1;durP1;ratioP1;P2;durP2;ratioP2
15820;SDS011;8011;51.650;7.240;2022-09-09T03:01:40;3.20;;;1.40;;
15820;SDS011;8011;51.650;7.240;2022-09-09T03:04:06;3.50;;;1.30;;
15820;SDS011;8011;51.650;7.240;2022-09-09T03:06:31;3.33;;;1.50;;
15820;SDS011;8011;51.650;7.240;2022-09-09T03:08:57;2.80;;;1.20;;
15820;SDS011;8011;51.650;7.240;2022-09-09T03:11:26;1.40;;;1.27;;
15820;SDS011;8011;51.650;7.240;2022-09-09T03:13:52;2.90;;;1.60;;
15820;SDS011;8011;51.650;7.240;2022-09-09T03:16:20;3.67;;;1.30;;
15820;SDS011;8011;51.650;7.240;2022-09-09T03:18:49;1.40;;;1.30;;
15820;SDS011;8011;51.650;7.240;2022-09-09T03:21:15;3.27;;;1.60;;
15820;SDS011;8011;51.650;7.240;2022-09-09T03:23:40;2.67;;;1.50;;
15820;SDS011;8011;51.650;7.240;2022-09-09T03:26:06;2.90;;;1.63;;
15820;SDS011;8011;51.650;7.240;2022-09-09T03:28:32;4.33;;;1.80;;
15820;SDS011;8011;51.650;7.240;2022-09-09T03:30:59;3.27;;;1.53;;
15820;SDS011;8011;51.650;7.240;2022-09-09T03:33:29;3.57;;;1.90;;
15820;SDS011;8011;51.650;7.240;2022-09-09T03:35:55;4.60;;;1.70;;
15820;SDS011;8011;51.650;7.240;2022-09-09T03:38:24;1.73;;;1.40;;
15820;SDS011;8011;51.650;7.240;2022-09-09T03:40:53;2.87;;;1.83;;
15820;SDS011;8011;51.650;7.240;2022-09-09T03:43:22;2.87;;;1.67;;
15820;SDS011;8011;51.650;7.240;2022-09-09T03:45:51;4.43;;;2.13;;
15820;SDS011;8011;51.650;7.240;2022-09-09T03:48:18;2.63;;;1.87;;
15820;SDS011;8011;51.650;7.240;2022-09-09T03:50:47;3.13;;;1.70;;
15820;SDS011;8011;51.650;7.240;2022-09-09T03:53:14;3.43;;;1.93;;
15820;SDS011;8011;51.650;7.240;2022-09-09T03:55:45;3.43;;;1.93;;
15820;SDS011;8011;51.650;7.240;2022-09-09T03:58:12;2.93;;;1.93;;
15820;SDS011;8011;51.650;7.240;2022-09-09T04:00:38;2.80;;;1.80;;
15820;SDS011;8011;51.650;7.240;2022-09-09T04:03:07;3.77;;;1.80;;
15820;SDS011;8011;51.650;7.240;2022-09-09T04:05:37;2.70;;;1.80;;
15820;SDS011;8011;51.650;7.240;2022-09-09T04:08:07;2.13;;;1.60;;
15820;SDS011;8011;51.650;7.240;2022-09-09T04:10:33;4.77;;;1.80;;
15820;SDS011;8011;51.650;7.240;2022-09-09T04:12:59;3.33;;;1.87;;
15820;SDS011;8011;51.650;7.240;2022-09-09T04:15:24;2.47;;;1.60;;
15820;SDS011;8011;51.650;7.240;2022-09-09T04:17:50;3.27;;;1.57;;
15820;SDS011;8011;51.650;7.240;2022-09-09T04:20:16;2.47;;;1.53;;
15820;SDS011;8011;51.650;7.240;2022-09-09T04:22:41;3.37;;;1.50;;
15820;SDS011;8011;51.650;7.240;2022-09-09T04:25:07;2.90;;;1.60;;
15820;SDS011;8011;51.650;7.240;2022-09-09T04:27:33;1.77;;;1.50;;
15820;SDS011;8011;51.650;7.240;2022-09-09T04:29:59;3.80;;;1.60;;
15820;SDS011;8011;51.650;7.240;2022-09-09T04:32:24;2.63;;;1.40;;
15820;SDS011;8011;51.650;7.240;2022-09-09T04:34:52;2.70;;;1.60;;
15820;SDS011;8011;51.650;7.240;2022-09-09T04:37:18;1.50;;;1.20;;
15820;SDS011;8011;51.650;7.240;2022-09-09T04:39:44;2.50;;;1.30;;
15820;SDS011;8011;51.650;7.240;2022-09-09T04:42:10;2.10;;;1.33;;
15820;SDS011;8011;51.650;7.240;2022-09-09T04:44:37;2.97;;;1.60;;
15820;SDS011;8011;51.650;7.240;2022-09-09T04:47:04;5.07;;;1.73;;
15820;SDS011;8011;51.650;7.240;2022-09-09T04:49:30;2.70;;;1.60;;
15820;SDS011;8011;51.650;7.240;2022-09-09T04:51:56;3.30;;;1.60;;
15820;SDS011;8011;51.650;7.240;2022-09-09T04:54:22;2.80;;;1.43;;
15820;SDS011;8011;51.650;7.240;2022-09-09T04:56:49;2.40;;;1.60;;
15820;SDS011;8011;51.650;7.240;2022-09-09T04:59:15;3.13;;;1.50;;
15820;SDS011;8011;51.650;7.240;2022-09-09T05:01:41;1.77;;;1.50;;
15820;SDS011;8011;51.650;7.240;2022-09-09T05:04:07;3.73;;;1.20;;
15820;SDS011;8011;51.650;7.240;2022-09-09T05:06:33;2.30;;;1.40;;
15820;SDS011;8011;51.650;7.240;2022-09-09T05:09:01;2.37;;;1.40;;
15820;SDS011;8011;51.650;7.240;2022-09-09T05:11:28;2.50;;;1.40;;
15820;SDS011;8011;51.650;7.240;2022-09-09T05:13:55;2.40;;;1.20;;
15820;SDS011;8011;51.650;7.240;2022-09-09T05:16:22;2.87;;;1.57;;
15820;SDS011;8011;51.650;7.240;2022-09-09T05:18:48;3.33;;;1.70;;
15820;SDS011;8011;51.650;7.240;2022-09-09T05:21:17;4.03;;;1.93;;
15820;SDS011;8011;51.650;7.240;2022-09-09T05:23:44;1.73;;;1.50;;
15820;SDS011;8011;51.650;7.240;2022-09-09T05:26:14;4.77;;;1.70;;
15820;SDS011;8011;51.650;7.240;2022-09-09T05:28:41;4.30;;;1.73;;
15820;SDS011;8011;51.650;7.240;2022-09-09T05:31:08;2.17;;;1.47;;
15820;SDS011;8011;51.650;7.240;2022-09-09T05:33:37;2.20;;;1.57;;
15820;SDS011;8011;51.650;7.240;2022-09-09T05:36:08;4.73;;;1.60;;
15820;SDS011;8011;51.650;7.240;2022-09-09T05:38:38;3.93;;;1.50;;
15820;SDS011;8011;51.650;7.240;2022-09-09T05:41:05;5.27;;;1.70;;
15820;SDS011;8011;51.650;7.240;2022-09-09T05:43:32;3.57;;;1.60;;
15820;SDS011;8011;51.650;7.240;2022-09-09T05:46:05;4.40;;;1.70;;
15820;SDS011;8011;51.650;7.240;2022-09-09T05:48:36;4.37;;;1.70;;
15820;SDS011;8011;51.650;7.240;2022-09-09T05:51:03;3.57;;;1.53;;
15820;SDS011;8011;51.650;7.240;2022-09-09T05:53:32;3.07;;;1.60;;
15820;SDS011;8011;51.650;7.240;2022-09-09T05:56:06;2.67;;;1.70;;
15820;SDS011;8011;51.650;7.240;2022-09-09T05:58:32;3.10;;;1.90;;
15820;SDS011;8011;51.650;7.240;2022-09-09T06:01:02;4.27;;;1.60;;
15820;SDS011;8011;51.650;7.240;2022-09-09T06:03:29;2.57;;;1.43;;
15820;SDS011;8011;51.650;7.240;2022-09-09T06:06:02;1.70;;;1.60;;
15820;SDS011;8011;51.650;7.240;2022-09-09T06:08:33;3.50;;;2.00;;
15820;SDS011;8011;51.650;7.240;2022-09-09T06:11:12;2.57;;;1.57;;
15820;SDS011;8011;51.650;7.240;2022-09-09T06:13:40;3.67;;;2.00;;
15820;SDS011;8011;51.650;7.240;2022-09-09T06:16:09;3.87;;;1.70;;
15820;SDS011;8011;51.650;7.240;2022-09-09T06:18:37;3.77;;;1.80;;
15820;SDS011;8011;51.650;7.240;2022-09-09T06:21:04;3.80;;;1.60;;
15820;SDS011;8011;51.650;7.240;2022-09-09T06:23:32;4.60;;;1.90;;
15820;SDS011;8011;51.650;7.240;2022-09-09T06:26:07;4.73;;;1.90;;
15820;SDS011;8011;51.650;7.240;2022-09-09T06:28:37;6.63;;;1.90;;
15820;SDS011;8011;51.650;7.240;2022-09-09T06:31:07;6.53;;;1.57;;
15820;SDS011;8011;51.650;7.240;2022-09-09T06:33:36;4.57;;;1.60;;
15820;SDS011;8011;51.650;7.240;2022-09-09T06:36:06;4.60;;;1.57;;
15820;SDS011;8011;51.650;7.240;2022-09-09T06:38:35;6.40;;;1.77;;
15820;SDS011;8011;51.650;7.240;2022-09-09T06:41:00;3.10;;;1.80;;
15820;SDS011;8011;51.650;7.240;2022-09-09T06:43:27;5.83;;;1.90;;
15820;SDS011;8011;51.650;7.240;2022-09-09T06:45:57;4.33;;;1.80;;
15820;SDS011;8011;51.650;7.240;2022-09-09T06:48:24;3.53;;;1.60;;
15820;SDS011;8011;51.650;7.240;2022-09-09T06:53:32;4.33;;;1.80;;
15820;SDS011;8011;51.650;7.240;2022-09-09T06:56:02;3.43;;;1.80;;
15820;SDS011;8011;51.650;7.240;2022-09-09T06:58:48;3.53;;;1.40;;
15820;SDS011;8011;51.650;7.240;2022-09-09T07:01:16;5.93;;;1.90;;
15820;SDS011;8011;51.650;7.240;2022-09-09T07:03:47;5.03;;;1.50;;
15820;SDS011;8011;51.650;7.240;2022-09-09T07:06:19;5.63;;;1.60;;
15820;SDS011;8011;51.650;7.240;2022-09-09T07:08:50;3.90;;;1.80;;
15820;SDS011;8011;51.650;7.240;2022-09-09T07:11:17;4.80;;;1.60;;
15820;SDS011;8011;51.650;7.240;2022-09-09T07:13:43;5.17;;;1.53;;
15820;SDS011;8011;51.650;7.240;2022-09-09T07:16:10;6.17;;;2.00;;
15820;SDS011;8011;51.650;7.240;2022-09-09T07:18:38;4.27;;;1.67;;
15820;SDS011;8011;51.650;7.240;2022-09-09T07:21:05;4.23;;;1.67;;
15820;SDS011;8011;51.650;7.240;2022-09-09T07:23:31;4.50;;;1.83;;
15820;SDS011;8011;51.650;7.240;2022-09-09T07:25:58;5.17;;;1.40;;
15820;SDS011;8011;51.650;7.240;2022-09-09T07:28:24;3.30;;;1.33;;
15820;SDS011;8011;51.650;7.240;2022-09-09T07:30:59;6.93;;;1.77;;
15820;SDS011;8011;51.650;7.240;2022-09-09T07:33:28;3.50;;;1.27;;
15820;SDS011;8011;51.650;7.240;2022-09-09T07:36:10;2.90;;;1.40;;
15820;SDS011;8011;51.650;7.240;2022-09-09T07:38:46;3.43;;;1.53;;
15820;SDS011;8011;51.650;7.240;2022-09-09T07:41:17;4.03;;;1.77;;
15820;SDS011;8011;51.650;7.240;2022-09-09T07:43:45;3.53;;;1.30;;
15820;SDS011;8011;51.650;7.240;2022-09-09T07:46:13;2.23;;;1.30;;
15820;SDS011;8011;51.650;7.240;2022-09-09T07:48:44;2.93;;;1.30;;
15820;SDS011;8011;51.650;7.240;2022-09-09T07:51:13;4.80;;;1.50;;
15820;SDS011;8011;51.650;7.240;2022-09-09T07:53:43;4.50;;;1.43;;
15820;SDS011;8011;51.650;7.240;2022-09-09T07:56:10;3.33;;;1.30;;
15820;SDS011;8011;51.650;7.240;2022-09-09T07:58:42;3.03;;;1.40;;
15820;SDS011;8011;51.650;7.240;2022-09-09T08:01:10;4.70;;;1.20;;
15820;SDS011;8011;51.650;7.240;2022-09-09T08:03:58;4.50;;;1.30;;
15820;SDS011;8011;51.650;7.240;2022-09-09T08:06:29;4.40;;;1.40;;
15820;SDS011;8011;51.650;7.240;2022-09-09T08:09:03;3.90;;;1.20;;
15820;SDS011;8011;51.650;7.240;2022-09-09T08:11:30;2.47;;;1.07;;
15820;SDS011;8011;51.650;7.240;2022-09-09T08:13:58;4.90;;;1.30;;
15820;SDS011;8011;51.650;7.240;2022-09-09T08:16:27;3.63;;;1.13;;
15820;SDS011;8011;51.650;7.240;2022-09-09T08:18:55;3.60;;;1.30;;
15820;SDS011;8011;51.650;7.240;2022-09-09T08:21:22;6.07;;;1.50;;
15820;SDS011;8011;51.650;7.240;2022-09-09T08:23:57;3.30;;;1.23;;
15820;SDS011;8011;51.650;7.240;2022-09-09T08:26:34;3.70;;;1.37;;
15820;SDS011;8011;51.650;7.240;2022-09-09T08:29:02;4.70;;;1.40;;
15820;SDS011;8011;51.650;7.240;2022-09-09T08:31:34;5.77;;;1.27;;
15820;SDS011;8011;51.650;7.240;2022-09-09T08:34:20;3.20;;;1.20;;
15820;SDS011;8011;51.650;7.240;2022-09-09T08:36:47;4.77;;;1.27;;
15820;SDS011;8011;51.650;7.240;2022-09-09T08:39:15;3.30;;;1.33;;
15820;SDS011;8011;51.650;7.240;2022-09-09T08:47:11;3.27;;;1.40;;
15820;SDS011;8011;51.650;7.240;2022-09-09T08:57:55;2.43;;;1.30;;
15820;SDS011;8011;51.650;7.240;2022-09-09T09:00:28;4.00;;;1.37;;
15820;SDS011;8011;51.650;7.240;2022-09-09T09:06:26;3.17;;;1.10;;
15820;SDS011;8011;51.650;7.240;2022-09-09T09:12:15;4.03;;;1.03;;
15820;SDS011;8011;51.650;7.240;2022-09-09T09:14:44;5.60;;;1.30;;
15820;SDS011;8011;51.650;7.240;2022-09-09T09:17:13;2.67;;;1.10;;
15820;SDS011;8011;51.650;7.240;2022-09-09T09:19:44;3.60;;;1.40;;
15820;SDS011;8011;51.650;7.240;2022-09-09T09:30:51;3.50;;;1.20;;
15820;SDS011;8011;51.650;7.240;2022-09-09T09:35:51;2.10;;;1.07;;
15820;SDS011;8011;51.650;7.240;2022-09-09T09:38:23;2.67;;;1.20;;
15820;SDS011;8011;51.650;7.240;2022-09-09T09:40:51;3.40;;;1.07;;
15820;SDS011;8011;51.650;7.240;2022-09-09T09:43:30;2.67;;;1.27;;
15820;SDS011;8011;51.650;7.240;2022-09-09T09:46:00;1.70;;;1.00;;
15820;SDS011;8011;51.650;7.240;2022-09-09T09:48:28;2.27;;;0.97;;
15820;SDS011;8011;51.650;7.240;2022-09-09T09:50:54;2.83;;;1.07;;
15820;SDS011;8011;51.650;7.240;2022-09-09T09:53:26;5.03;;;1.40;;
15820;SDS011;8011;51.650;7.240;2022-09-09T09:56:04;2.43;;;1.00;;
15820;SDS011;8011;51.650;7.240;2022-09-09T09:58:53;3.80;;;1.13;;
15820;SDS011;8011;51.650;7.240;2022-09-09T10:01:23;3.60;;;1.20;;
15820;SDS011;8011;51.650;7.240;2022-09-09T10:03:54;2.43;;;0.97;;
15820;SDS011;8011;51.650;7.240;2022-09-09T10:06:29;5.43;;;1.77;;
15820;SDS011;8011;51.650;7.240;2022-09-09T10:08:56;3.03;;;1.40;;
15820;SDS011;8011;51.650;7.240;2022-09-09T10:11:25;4.37;;;1.80;;
15820;SDS011;8011;51.650;7.240;2022-09-09T10:19:35;2.27;;;1.30;;
15820;SDS011;8011;51.650;7.240;2022-09-09T10:22:24;3.13;;;1.30;;
15820;SDS011;8011;51.650;7.240;2022-09-09T10:25:04;2.00;;;1.20;;
15820;SDS011;8011;51.650;7.240;2022-09-09T10:55:14;2.50;;;0.80;;
15820;SDS011;8011;51.650;7.240;2022-09-09T10:57:47;3.03;;;0.97;;
15820;SDS011;8011;51.650;7.240;2022-09-09T11:00:24;1.77;;;0.87;;
15820;SDS011;8011;51.650;7.240;2022-09-09T11:02:56;2.37;;;1.00;;
15820;SDS011;8011;51.650;7.240;2022-09-09T11:13:34;3.30;;;0.90;;
15820;SDS011;8011;51.650;7.240;2022-09-09T11:19:10;1.03;;;0.60;;
15820;SDS011;8011;51.650;7.240;2022-09-09T11:21:45;2.20;;;0.90;;
15820;SDS011;8011;51.650;7.240;2022-09-09T11:26:53;2.87;;;0.90;;
15820;SDS011;8011;51.650;7.240;2022-09-09T11:29:44;1.80;;;0.80;;
15820;SDS011;8011;51.650;7.240;2022-09-09T11:41:10;2.17;;;0.80;;
15820;SDS011;8011;51.650;7.240;2022-09-09T11:43:48;1.60;;;0.97;;
15820;SDS011;8011;51.650;7.240;2022-09-09T11:46:19;2.73;;;0.87;;
15820;SDS011;8011;51.650;7.240;2022-09-09T11:49:01;3.67;;;0.87;;
15820;SDS011;8011;51.650;7.240;2022-09-09T11:51:30;2.03;;;0.80;;
15820;SDS011;8011;51.650;7.240;2022-09-09T11:56:54;2.20;;;1.20;;
15820;SDS011;8011;51.650;7.240;2022-09-09T11:59:21;1.57;;;0.70;;
15820;SDS011;8011;51.650;7.240;2022-09-09T12:02:30;2.60;;;1.20;;
15820;SDS011;8011;51.650;7.240;2022-09-09T12:05:07;1.50;;;0.70;;
15820;SDS011;8011;51.650;7.240;2022-09-09T12:12:52;3.13;;;0.73;;
15820;SDS011;8011;51.650;7.240;2022-09-09T12:15:26;2.53;;;1.00;;
15820;SDS011;8011;51.650;7.240;2022-09-09T12:17:54;3.27;;;1.10;;
15820;SDS011;8011;51.650;7.240;2022-09-09T12:20:23;1.50;;;0.63;;
15820;SDS011;8011;51.650;7.240;2022-09-09T12:25:31;2.97;;;0.70;;
15820;SDS011;8011;51.650;7.240;2022-09-09T12:30:56;1.90;;;1.07;;
15820;SDS011;8011;51.650;7.240;2022-09-09T12:33:20;3.07;;;0.73;;
15820;SDS011;8011;51.650;7.240;2022-09-09T12:35:49;3.23;;;0.90;;
15820;SDS011;8011;51.650;7.240;2022-09-09T12:38:39;1.83;;;0.90;;
15820;SDS011;8011;51.650;7.240;2022-09-09T12:41:15;1.93;;;0.80;;
15820;SDS011;8011;51.650;7.240;2022-09-09T12:43:47;1.33;;;0.70;;
15820;SDS011;8011;51.650;7.240;2022-09-09T12:46:18;2.00;;;1.07;;
15820;SDS011;8011;51.650;7.240;2022-09-09T12:48:58;3.07;;;0.90;;
15820;SDS011;8011;51.650;7.240;2022-09-09T12:53:52;1.77;;;0.60;;
15820;SDS011;8011;51.650;7.240;2022-09-09T12:56:25;1.67;;;0.57;;
15820;SDS011;8011;51.650;7.240;2022-09-09T12:58:56;1.73;;;0.90;;
15820;SDS011;8011;51.650;7.240;2022-09-09T13:01:30;3.93;;;0.73;;
15820;SDS011;8011;51.650;7.240;2022-09-09T13:03:58;2.87;;;0.93;;
15820;SDS011;8011;51.650;7.240;2022-09-09T13:06:25;2.33;;;0.70;;
15820;SDS011;8011;51.650;7.240;2022-09-09T13:08:53;2.03;;;0.73;;
15820;SDS011;8011;51.650;7.240;2022-09-09T13:11:24;2.97;;;0.70;;
15820;SDS011;8011;51.650;7.240;2022-09-09T13:13:56;2.00;;;0.80;;
15820;SDS011;8011;51.650;7.240;2022-09-09T13:16:24;1.93;;;0.70;;
15820;SDS011;8011;51.650;7.240;2022-09-09T13:19:13;1.97;;;0.60;;
15820;SDS011;8011;51.650;7.240;2022-09-09T13:21:40;0.80;;;0.63;;
15820;SDS011;8011;51.650;7.240;2022-09-09T13:27:26;2.17;;;0.83;;
15820;SDS011;8011;51.650;7.240;2022-09-09T13:29:57;3.13;;;0.80;;
15820;SDS011;8011;51.650;7.240;2022-09-09T13:32:23;1.87;;;0.73;;
15820;SDS011;8011;51.650;7.240;2022-09-09T13:34:52;3.10;;;0.80;;
15820;SDS011;8011;51.650;7.240;2022-09-09T13:37:28;2.23;;;0.90;;
15820;SDS011;8011;51.650;7.240;2022-09-09T13:39:56;2.90;;;1.10;;
15820;SDS011;8011;51.650;7.240;2022-09-09T13:42:26;2.73;;;0.83;;
15820;SDS011;8011;51.650;7.240;2022-09-09T13:44:55;2.13;;;0.70;;
15820;SDS011;8011;51.650;7.240;2022-09-09T13:47:26;4.43;;;1.13;;
15820;SDS011;8011;51.650;7.240;2022-09-09T13:49:57;2.10;;;1.10;;
15820;SDS011;8011;51.650;7.240;2022-09-09T13:52:22;5.03;;;1.40;;
15820;SDS011;8011;51.650;7.240;2022-09-09T13:54:49;3.37;;;1.47;;
15820;SDS011;8011;51.650;7.240;2022-09-09T13:57:17;2.63;;;1.03;;
15820;SDS011;8011;51.650;7.240;2022-09-09T13:59:46;1.93;;;0.93;;
15820;SDS011;8011;51.650;7.240;2022-09-09T14:02:13;2.93;;;1.07;;
15820;SDS011;8011;51.650;7.240;2022-09-09T14:04:39;2.70;;;1.00;;
15820;SDS011;8011;51.650;7.240;2022-09-09T14:07:09;1.60;;;1.00;;
15820;SDS011;8011;51.650;7.240;2022-09-09T14:09:40;4.00;;;1.30;;
15820;SDS011;8011;51.650;7.240;2022-09-09T14:12:10;2.03;;;1.03;;
15820;SDS011;8011;51.650;7.240;2022-09-09T14:14:37;3.80;;;1.17;;
15820;SDS011;8011;51.650;7.240;2022-09-09T14:17:03;4.33;;;1.13;;
15820;SDS011;8011;51.650;7.240;2022-09-09T14:19:29;3.03;;;1.27;;
15820;SDS011;8011;51.650;7.240;2022-09-09T14:21:56;1.73;;;1.10;;
15820;SDS011;8011;51.650;7.240;2022-09-09T14:24:22;3.97;;;1.30;;
15820;SDS011;8011;51.650;7.240;2022-09-09T14:26:48;4.00;;;1.40;;
15820;SDS011;8011;51.650;7.240;2022-09-09T14:29:14;2.47;;;1.37;;
15820;SDS011;8011;51.650;7.240;2022-09-09T14:31:39;2.30;;;1.20;;
15820;SDS011;8011;51.650;7.240;2022-09-09T14:34:05;2.93;;;1.20;;
15820;SDS011;8011;51.650;7.240;2022-09-09T14:36:31;3.57;;;1.40;;
15820;SDS011;8011;51.650;7.240;2022-09-09T14:38:56;2.13;;;1.17;;
15820;SDS011;8011;51.650;7.240;2022-09-09T14:41:23;2.77;;;1.00;;
15820;SDS011;8011;51.650;7.240;2022-09-09T14:43:50;1.40;;;1.00;;
15820;SDS011;8011;51.650;7.240;2022-09-09T14:46:18;1.57;;;0.80;;
15820;SDS011;8011;51.650;7.240;2022-09-09T14:48:46;1.10;;;0.70;;
15820;SDS011;8011;51.650;7.240;2022-09-09T14:53:41;2.63;;;0.70;;
15820;SDS011;8011;51.650;7.240;2022-09-09T14:56:09;1.97;;;0.80;;
15820;SDS011;8011;51.650;7.240;2022-09-09T14:58:43;1.77;;;0.70;;
15820;SDS011;8011;51.650;7.240;2022-09-09T15:01:10;1.03;;;0.70;;
15820;SDS011;8011;51.650;7.240;2022-09-09T15:03:41;1.80;;;0.70;;
15820;SDS011;8011;51.650;7.240;2022-09-09T15:06:09;2.87;;;1.00;;
15820;SDS011;8011;51.650;7.240;2022-09-09T15:08:37;1.07;;;0.70;;
15820;SDS011;8011;51.650;7.240;2022-09-09T15:11:05;3.03;;;1.00;;
15820;SDS011;8011;51.650;7.240;2022-09-09T15:13:35;3.73;;;0.87;;
15820;SDS011;8011;51.650;7.240;2022-09-09T15:16:09;4.33;;;1.00;;
15820;SDS011;8011;51.650;7.240;2022-09-09T15:18:39;2.43;;;1.17;;
15820;SDS011;8011;51.650;7.240;2022-09-09T15:21:08;3.17;;;1.00;;
15820;SDS011;8011;51.650;7.240;2022-09-09T15:23:35;1.73;;;0.97;;
15820;SDS011;8011;51.650;7.240;2022-09-09T15:26:01;3.47;;;1.13;;
15820;SDS011;8011;51.650;7.240;2022-09-09T15:28:28;1.80;;;1.27;;
15820;SDS011;8011;51.650;7.240;2022-09-09T15:30:53;6.07;;;1.50;;
15820;SDS011;8011;51.650;7.240;2022-09-09T15:33:20;2.83;;;1.30;;
15820;SDS011;8011;51.650;7.240;2022-09-09T15:35:47;2.73;;;1.40;;
15820;SDS011;8011;51.650;7.240;2022-09-09T15:38:14;2.27;;;0.90;;
15820;SDS011;8011;51.650;7.240;2022-09-09T15:40:41;1.73;;;0.90;;
15820;SDS011;8011;51.650;7.240;2022-09-09T15:43:07;1.77;;;0.80;;
15820;SDS011;8011;51.650;7.240;2022-09-09T15:45:35;1.37;;;0.67;;
15820;SDS011;8011;51.650;7.240;2022-09-09T15:48:01;3.03;;;1.00;;
15820;SDS011;8011;51.650;7.240;2022-09-09T15:50:28;1.40;;;0.97;;
15820;SDS011;8011;51.650;7.240;2022-09-09T15:52:57;1.40;;;0.90;;
15820;SDS011;8011;51.650;7.240;2022-09-09T15:55:23;1.43;;;0.93;;
15820;SDS011;8011;51.650;7.240;2022-09-09T15:57:49;1.20;;;1.00;;
15820;SDS011;8011;51.650;7.240;2022-09-09T16:00:17;2.07;;;0.90;;
15820;SDS011;8011;51.650;7.240;2022-09-09T16:02:43;1.40;;;0.70;;
15820;SDS011;8011;51.650;7.240;2022-09-09T16:05:08;1.20;;;0.90;;
15820;SDS011;8011;51.650;7.240;2022-09-09T16:07:34;1.10;;;0.80;;
15820;SDS011;8011;51.650;7.240;2022-09-09T16:10:01;0.90;;;0.50;;
15820;SDS011;8011;51.650;7.240;2022-09-09T16:12:27;0.90;;;0.70;;
15820;SDS011;8011;51.650;7.240;2022-09-09T16:14:53;0.70;;;0.60;;
15820;SDS011;8011;51.650;7.240;2022-09-09T16:17:18;1.17;;;0.60;;
15820;SDS011;8011;51.650;7.240;2022-09-09T16:19:45;0.73;;;0.60;;
15820;SDS011;8011;51.650;7.240;2022-09-09T16:22:11;2.07;;;0.80;;
15820;SDS011;8011;51.650;7.240;2022-09-09T16:24:37;1.67;;;0.70;;
15820;SDS011;8011;51.650;7.240;2022-09-09T16:27:03;1.37;;;0.60;;
15820;SDS011;8011;51.650;7.240;2022-09-09T16:29:29;1.50;;;0.77;;
15820;SDS011;8011;51.650;7.240;2022-09-09T16:31:55;0.60;;;0.60;;
15820;SDS011;8011;51.650;7.240;2022-09-09T16:34:21;1.17;;;0.87;;
15820;SDS011;8011;51.650;7.240;2022-09-09T16:36:47;1.53;;;0.93;;
15820;SDS011;8011;51.650;7.240;2022-09-09T16:39:14;2.77;;;0.70;;
15820;SDS011;8011;51.650;7.240;2022-09-09T16:41:42;2.67;;;0.80;;
15820;SDS011;8011;51.650;7.240;2022-09-09T16:44:10;2.47;;;0.67;;
15820;SDS011;8011;51.650;7.240;2022-09-09T16:46:38;1.17;;;0.70;;
15820;SDS011;8011;51.650;7.240;2022-09-09T16:49:07;1.73;;;0.80;;
15820;SDS011;8011;51.650;7.240;2022-09-09T16:51:35;1.33;;;0.50;;
15820;SDS011;8011;51.650;7.240;2022-09-09T16:54:09;0.57;;;0.57;;
15820;SDS011;8011;51.650;7.240;2022-09-09T16:56:37;0.77;;;0.50;;
15820;SDS011;8011;51.650;7.240;2022-09-09T16:59:07;2.50;;;0.70;;
15820;SDS011;8011;51.650;7.240;2022-09-09T17:01:35;0.60;;;0.60;;
15820;SDS011;8011;51.650;7.240;2022-09-09T17:04:06;0.67;;;0.47;;
15820;SDS011;8011;51.650;7.240;2022-09-09T17:06:33;1.00;;;0.60;;
15820;SDS011;8011;51.650;7.240;2022-09-09T17:09:01;0.80;;;0.63;;
15820;SDS011;8011;51.650;7.240;2022-09-09T17:11:28;0.70;;;0.60;;
15820;SDS011;8011;51.650;7.240;2022-09-09T17:13:55;1.50;;;0.40;;
15820;SDS011;8011;51.650;7.240;2022-09-09T17:16:23;0.70;;;0.60;;
15820;SDS011;8011;51.650;7.240;2022-09-09T17:18:52;1.07;;;0.60;;
15820;SDS011;8011;51.650;7.240;2022-09-09T17:21:20;3.43;;;0.60;;
15820;SDS011;8011;51.650;7.240;2022-09-09T17:23:48;2.17;;;0.60;;
15820;SDS011;8011;51.650;7.240;2022-09-09T17:26:15;1.27;;;0.53;;
15820;SDS011;8011;51.650;7.240;2022-09-09T17:28:42;1.17;;;0.80;;
15820;SDS011;8011;51.650;7.240;2022-09-09T17:31:09;1.17;;;0.57;;
15820;SDS011;8011;51.650;7.240;2022-09-09T17:33:41;1.30;;;0.77;;
15820;SDS011;8011;51.650;7.240;2022-09-09T17:36:10;0.80;;;0.70;;
15820;SDS011;8011;51.650;7.240;2022-09-09T17:38:36;1.27;;;0.87;;
15820;SDS011;8011;51.650;7.240;2022-09-09T17:41:07;2.00;;;1.00;;
15820;SDS011;8011;51.650;7.240;2022-09-09T17:43:38;2.47;;;0.90;;
15820;SDS011;8011;51.650;7.240;2022-09-09T17:46:05;2.10;;;0.90;;
15820;SDS011;8011;51.650;7.240;2022-09-09T17:48:31;1.30;;;0.83;;
15820;SDS011;8011;51.650;7.240;2022-09-09T17:50:58;1.47;;;0.80;;
15820;SDS011;8011;51.650;7.240;2022-09-09T17:53:23;1.60;;;1.07;;
15820;SDS011;8011;51.650;7.240;2022-09-09T17:55:50;1.30;;;0.90;;
15820;SDS011;8011;51.650;7.240;2022-09-09T17:58:16;2.00;;;0.70;;
15820;SDS011;8011;51.650;7.240;2022-09-09T18:00:42;1.10;;;0.83;;
15820;SDS011;8011;51.650;7.240;2022-09-09T18:03:07;2.60;;;1.27;;
15820;SDS011;8011;51.650;7.240;2022-09-09T18:05:34;2.37;;;1.00;;
15820;SDS011;8011;51.650;7.240;2022-09-09T18:07:59;2.77;;;1.03;;
15820;SDS011;8011;51.650;7.240;2022-09-09T18:10:25;5.23;;;1.20;;
15820;SDS011;8011;51.650;7.240;2022-09-09T18:12:51;1.40;;;1.10;;
15820;SDS011;8011;51.650;7.240;2022-09-09T18:15:16;3.57;;;1.37;;
15820;SDS011;8011;51.650;7.240;2022-09-09T18:17:42;0.80;;;0.80;;
15820;SDS011;8011;51.650;7.240;2022-09-09T18:20:08;2.73;;;1.20;;
15820;SDS011;8011;51.650;7.240;2022-09-09T18:22:35;1.97;;;1.10;;
15820;SDS011;8011;51.650;7.240;2022-09-09T18:25:00;2.27;;;1.00;;
15820;SDS011;8011;51.650;7.240;2022-09-09T18:27:26;1.83;;;1.17;;
15820;SDS011;8011;51.650;7.240;2022-09-09T18:29:53;1.20;;;0.93;;
15820;SDS011;8011;51.650;7.240;2022-09-09T18:32:18;2.80;;;1.20;;
15820;SDS011;8011;51.650;7.240;2022-09-09T18:34:44;1.37;;;0.97;;
15820;SDS011;8011;51.650;7.240;2022-09-09T18:37:10;1.83;;;1.00;;
15820;SDS011;8011;51.650;7.240;2022-09-09T18:39:36;1.67;;;1.10;;
15820;SDS011;8011;51.650;7.240;2022-09-09T18:42:02;2.63;;;1.00;;
15820;SDS011;8011;51.650;7.240;2022-09-09T18:44:30;1.33;;;1.20;;
15820;SDS011;8011;51.650;7.240;2022-09-09T18:46:57;2.03;;;1.13;;
15820;SDS011;8011;51.650;7.240;2022-09-09T18:49:24;1.40;;;1.17;;
15820;SDS011;8011;51.650;7.240;2022-09-09T18:51:50;2.53;;;1.30;;
15820;SDS011;8011;51.650;7.240;2022-09-09T18:54:18;3.40;;;1.33;;
15820;SDS011;8011;51.650;7.240;2022-09-09T18:56:46;1.47;;;1.20;;
15820;SDS011;8011;51.650;7.240;2022-09-09T18:59:14;2.83;;;1.20;;
15820;SDS011;8011;51.650;7.240;2022-09-09T19:01:46;1.73;;;1.27;;
15820;SDS011;8011;51.650;7.240;2022-09-09T19:04:12;2.33;;;1.50;;
15820;SDS011;8011;51.650;7.240;2022-09-09T19:06:40;4.70;;;1.47;;
15820;SDS011;8011;51.650;7.240;2022-09-09T19:09:09;3.53;;;1.50;;
15820;SDS011;8011;51.650;7.240;2022-09-09T19:11:35;3.10;;;1.10;;
15820;SDS011;8011;51.650;7.240;2022-09-09T19:14:02;3.83;;;1.77;;
15820;SDS011;8011;51.650;7.240;2022-09-09T19:16:30;2.07;;;1.50;;
15820;SDS011;8011;51.650;7.240;2022-09-09T19:18:58;2.63;;;1.40;;
15820;SDS011;8011;51.650;7.240;2022-09-09T19:21:29;2.23;;;1.40;;
15820;SDS011;8011;51.650;7.240;2022-09-09T19:26:32;3.10;;;1.43;;
15820;SDS011;8011;51.650;7.240;2022-09-09T19:29:04;3.97;;;1.50;;
15820;SDS011;8011;51.650;7.240;2022-09-09T19:31:30;2.87;;;1.50;;
15820;SDS011;8011;51.650;7.240;2022-09-09T19:33:56;2.43;;;1.63;;
15820;SDS011;8011;51.650;7.240;2022-09-09T19:36:22;2.73;;;1.50;;
15820;SDS011;8011;51.650;7.240;2022-09-09T19:38:49;1.80;;;1.50;;
15820;SDS011;8011;51.650;7.240;2022-09-09T19:41:17;2.70;;;1.30;;
15820;SDS011;8011;51.650;7.240;2022-09-09T19:43:47;2.53;;;1.60;;
15820;SDS011;8011;51.650;7.240;2022-09-09T19:46:14;1.93;;;1.27;;
15820;SDS011;8011;51.650;7.240;2022-09-09T19:48:42;2.80;;;1.30;;
15820;SDS011;8011;51.650;7.240;2022-09-09T19:53:39;2.67;;;1.50;;
15820;SDS011;8011;51.650;7.240;2022-09-09T19:56:10;2.67;;;1.40;;
15820;SDS011;8011;51.650;7.240;2022-09-09T19:58:37;1.93;;;1.50;;
15820;SDS011;8011;51.650;7.240;2022-09-09T20:01:17;3.70;;;1.87;;
15820;SDS011;8011;51.650;7.240;2022-09-09T20:03:46;2.57;;;1.50;;
15820;SDS011;8011;51.650;7.240;2022-09-09T20:06:14;5.30;;;1.70;;
15820;SDS011;8011;51.650;7.240;2022-09-09T20:08:42;1.50;;;1.33;;